Observations for Trim Patrick St
| Time | AQI | Temp °C | Hum % | Pres Pa | CO μg/m³ | H₂S μg/m³ | NO μg/m³ | NO₂ μg/m³ | O₃ μg/m³ | SO₂ μg/m³ | PM1 μg/m³ | PM2.5 μg/m³ | PM10 μg/m³ |
|---|---|---|---|---|---|---|---|---|---|---|---|---|---|
| Wednesday 5 August 2026 | |||||||||||||
| 12:08 | 2 | 21.6 | 53 | 73,198 | 0 | 0 | 2.94 | 8.64 | 76.63 | 3.61 | 2 | 6.22 | 6.84 |
| 12:07 | 2 | 21.6 | 53 | 73,031 | 0 | 0 | 2.83 | 8.09 | 71.53 | 4.3 | 2 | 6.24 | 6.86 |
| 12:06 | 2 | 21.6 | 52 | 72,839 | 0 | 0 | 2.79 | 7.03 | 64.91 | 4.25 | 2 | 7.04 | 7.74 |
| 12:05 | 2 | 21.6 | 52 | 72,650 | 0 | 0 | 2.89 | 7.64 | 64.29 | 3.83 | 2 | 7.03 | 7.74 |
| 12:04 | 2 | 21.6 | 52 | 72,509 | 0 | 0 | 2.92 | 7.64 | 64.29 | 3.46 | 2.86 | 7.05 | 7.75 |
| 12:03 | 2 | 21.7 | 52 | 72,320 | 0 | 0 | 2.9 | 6.52 | 62.17 | 3.45 | 2.86 | 7.82 | 8.6 |
| 12:02 | 2 | 21.7 | 52 | 72,222 | 0 | 0 | 2.9 | 6.76 | 62.47 | 3.74 | 2 | 7.06 | 7.77 |
| 12:01 | 2 | 21.7 | 52 | 72,175 | 0 | 0 | 2.82 | 7.02 | 63.33 | 3.81 | 2 | 6.32 | 6.95 |
| 12:00 | 2 | 21.7 | 52 | 72,169 | 0 | 0 | 2.81 | 6.45 | 63.32 | 3.77 | 2 | 6.31 | 6.94 |
| 11:59 | 2 | 21.8 | 51 | 72,220 | 0 | 0 | 2.52 | 5.15 | 59.55 | 3.77 | 2 | 6.32 | 6.96 |
| 11:57 | 2 | 21.8 | 51 | 72,257 | 0 | 0 | 2.68 | 6.11 | 63.02 | 3.52 | 2 | 6.34 | 6.97 |
| 11:56 | 2 | 21.8 | 52 | 72,275 | 0 | 0 | 2.86 | 6.59 | 63.17 | 3.65 | 2 | 6.29 | 6.92 |
| 11:55 | 2 | 21.8 | 51 | 72,389 | 0 | 0 | 2.73 | 5.07 | 62.15 | 3.87 | 2 | 6.34 | 6.98 |
| 11:54 | 2 | 21.9 | 51 | 72,511 | 0 | 0 | 2.85 | 6.9 | 62.73 | 3.48 | 2 | 6.34 | 6.98 |
| 11:52 | 2 | 21.9 | 52 | 72,805 | 0 | 0 | 2.88 | 7.94 | 62.05 | 4.04 | 2 | 7.07 | 7.77 |
| 11:51 | 2 | 21.9 | 51 | 72,895 | 0 | 0 | 2.8 | 6.67 | 54.34 | 3.86 | 2 | 6.34 | 6.97 |
| 11:49 | 2 | 21.9 | 52 | 73,072 | 0.01 | 0 | 2.87 | 6.67 | 62 | 3.71 | 2 | 6.31 | 6.94 |
| 11:48 | 2 | 21.9 | 52 | 73,190 | 0 | 0 | 2.9 | 7.33 | 61.46 | 4.08 | 2 | 6.28 | 6.91 |
| 11:43 | 2 | 21.7 | 53 | 73,552 | 0.01 | 0 | 2.88 | 8.37 | 61.83 | 3.25 | 2 | 7.01 | 7.71 |
| 11:42 | 2 | 21.7 | 53 | 73,632 | 0 | 0 | 2.97 | 9.64 | 64.56 | 3.37 | 2.86 | 6.99 | 7.69 |